Time;durP1;ratioP1;P1;durP2;ratioP2;P2;SDS_P1;SDS_P2;PMS_P1;PMS_P2;Temp;Humidity;BMP_temperature;BMP_pressure;BME280_temperature;BME280_humidity;BME280_pressure;Samples;Min_cycle;Max_cycle;Signal;HPM_P1;HPM_P2
2021/11/06 00:01:01;;;;;;;13.07;10.53;;;;;;;15.52;63.25;100924.31;1642678;86;21490;-69
2021/11/06 00:03:27;;;;;;;14.93;11.27;;;;;;;15.42;63.40;100937.30;1642539;86;21610;-68
2021/11/06 00:05:54;;;;;;;12.90;10.73;;;;;;;15.40;63.30;100948.87;1642577;86;21508;-68
2021/11/06 00:08:21;;;;;;;16.87;11.50;;;;;;;15.35;63.67;100947.58;1671249;84;22053;-68
2021/11/06 00:10:48;;;;;;;14.27;10.90;;;;;;;15.35;63.67;100947.58;1671265;85;21598;-68
2021/11/06 00:13:17;;;;;;;13.57;11.20;;;;;;;15.34;63.69;100956.75;1671321;84;22092;-68
2021/11/06 00:15:45;;;;;;;13.60;11.20;;;;;;;15.28;63.80;100945.20;1671163;85;21756;-68
2021/11/06 00:18:13;;;;;;;13.87;11.07;;;;;;;15.22;63.93;100945.77;1671080;84;21612;-68
2021/11/06 00:20:40;;;;;;;13.70;11.17;;;;;;;15.19;63.96;100954.39;1671192;84;21518;-68
2021/11/06 00:23:09;;;;;;;14.73;11.80;;;;;;;15.19;63.66;100957.08;1671289;84;21737;-68
2021/11/06 00:25:35;;;;;;;12.93;10.70;;;;;;;15.19;63.66;100957.08;1671144;84;21453;-68
2021/11/06 00:28:02;;;;;;;14.90;11.00;;;;;;;15.14;62.87;100967.89;1671437;85;21434;-68
2021/11/06 00:30:29;;;;;;;13.33;10.27;;;;;;;15.14;62.87;100967.89;1671100;84;21437;-68
2021/11/06 00:32:56;;;;;;;12.27;9.80;;;;;;;15.09;63.13;100954.45;1671512;84;21669;-68
2021/11/06 00:35:24;;;;;;;12.93;10.40;;;;;;;15.07;62.47;100967.39;1671231;84;21825;-68
2021/11/06 00:37:51;;;;;;;13.67;10.73;;;;;;;15.07;62.47;100967.39;1671643;85;22068;-68
2021/11/06 00:40:17;;;;;;;12.13;9.73;;;;;;;15.04;62.70;100961.73;1671311;84;21519;-69
2021/11/06 00:42:44;;;;;;;11.80;9.90;;;;;;;14.99;62.62;100974.68;1641659;87;22059;-68
2021/11/06 00:45:12;;;;;;;11.83;9.83;;;;;;;14.94;62.75;100986.83;1638731;86;21525;-68
2021/11/06 00:47:40;;;;;;;12.87;9.40;;;;;;;14.83;62.71;100988.72;1642883;86;21705;-68
2021/11/06 00:50:08;;;;;;;12.23;9.33;;;;;;;14.76;63.14;100989.02;1669912;86;21498;-69
2021/11/06 00:52:35;;;;;;;11.13;8.40;;;;;;;14.76;63.14;100989.02;1647034;86;21500;-69
2021/11/06 00:55:04;;;;;;;9.83;7.73;;;;;;;14.58;62.46;100991.48;1641816;87;21980;-68
2021/11/06 00:57:30;;;;;;;12.03;7.83;;;;;;;14.58;62.46;100991.48;1671441;85;21534;-68
2021/11/06 00:59:56;;;;;;;9.30;7.30;;;;;;;14.51;62.43;100997.97;1642712;86;21342;-70
2021/11/06 01:02:23;;;;;;;10.70;8.10;;;;;;;14.43;62.43;101003.06;1671496;85;21289;-67
2021/11/06 01:04:50;;;;;;;12.87;7.37;;;;;;;14.37;62.47;101010.86;1642673;86;21275;-68
2021/11/06 01:07:17;;;;;;;9.70;7.00;;;;;;;14.30;62.28;101015.96;1671470;84;21773;-68
2021/11/06 01:09:44;;;;;;;6.90;4.80;;;;;;;14.22;61.91;101023.78;1642746;86;21387;-68
2021/11/06 01:12:11;;;;;;;6.30;4.73;;;;;;;14.13;60.86;101019.47;1671498;85;21320;-68
2021/11/06 01:14:38;;;;;;;7.63;4.50;;;;;;;14.02;60.07;101020.56;1671714;85;21281;-68
2021/11/06 01:17:05;;;;;;;6.57;4.67;;;;;;;13.91;59.62;101000.94;1642660;87;21244;-68
2021/11/06 01:19:32;;;;;;;7.47;4.43;;;;;;;13.83;59.66;101019.73;1671470;85;21344;-68
2021/11/06 01:21:58;;;;;;;6.63;4.60;;;;;;;13.73;59.81;101030.47;1642855;86;21734;-68
2021/11/06 01:24:25;;;;;;;6.57;4.27;;;;;;;13.61;60.67;101041.44;1671535;85;21204;-68
2021/11/06 01:26:53;;;;;;;6.00;4.13;;;;;;;13.47;61.51;101060.46;1642554;86;21349;-68
2021/11/06 01:29:19;;;;;;;5.80;3.60;;;;;;;13.26;61.88;101046.18;1671411;84;21215;-68
2021/11/06 01:31:47;;;;;;;5.00;3.70;;;;;;;13.08;62.23;101038.55;1671354;84;21412;-68
2021/11/06 01:34:13;;;;;;;6.03;4.33;;;;;;;12.88;62.56;101058.83;1642792;87;21325;-68
2021/11/06 01:36:40;;;;;;;6.13;4.27;;;;;;;12.74;63.20;101048.84;1670138;84;21324;-68
2021/11/06 01:39:06;;;;;;;6.30;4.03;;;;;;;12.61;63.70;101045.55;1671214;85;21299;-68
2021/11/06 01:41:34;;;;;;;5.60;4.30;;;;;;;12.52;64.17;101039.58;1642760;86;21775;-68
2021/11/06 01:44:01;;;;;;;7.03;4.60;;;;;;;12.44;64.46;101053.73;1642560;87;21885;-68
2021/11/06 01:46:29;;;;;;;7.47;4.53;;;;;;;12.38;64.69;101048.06;1671074;84;21075;-68
2021/11/06 01:48:57;;;;;;;8.17;5.03;;;;;;;12.37;64.86;101055.84;1642659;86;21234;-68
2021/11/06 01:51:23;;;;;;;6.77;4.50;;;;;;;12.37;65.04;101066.55;1642983;87;21273;-68
2021/11/06 01:53:50;;;;;;;6.23;4.43;;;;;;;12.36;65.12;101075.62;1658130;84;21277;-68
2021/11/06 01:56:17;;;;;;;6.50;4.43;;;;;;;12.35;65.29;101063.84;1641293;86;21424;-68
2021/11/06 01:58:43;;;;;;;6.03;4.27;;;;;;;12.34;65.42;101056.85;1671093;84;21102;-69
2021/11/06 02:01:11;;;;;;;6.50;5.10;;;;;;;12.34;65.58;101068.40;1642804;86;21310;-69
2021/11/06 02:03:38;;;;;;;6.50;5.07;;;;;;;12.32;65.74;101082.56;1671061;84;21243;-69
2021/11/06 02:06:06;;;;;;;6.50;4.67;;;;;;;12.33;65.84;101088.19;1670925;84;21236;-69
2021/11/06 02:08:33;;;;;;;7.43;5.37;;;;;;;12.33;65.95;101085.52;1642730;87;21129;-69
2021/11/06 02:11:00;;;;;;;6.70;4.80;;;;;;;12.33;65.98;101089.53;1670350;84;21849;-70
2021/11/06 02:13:28;;;;;;;7.57;5.73;;;;;;;12.33;66.01;101088.19;1663551;86;21550;-69
2021/11/06 02:15:55;;;;;;;7.97;5.37;;;;;;;12.32;65.75;101099.17;1628812;88;21276;-69
2021/11/06 02:18:23;;;;;;;8.07;5.80;;;;;;;12.32;65.59;101109.35;1628713;88;21319;-68
2021/11/06 02:21:08;;;;;;;9.53;6.70;;;;;;;12.34;65.55;101118.46;1643646;86;21794;-69
2021/11/06 02:23:37;;;;;;;10.53;6.40;;;;;;;12.37;65.54;101122.80;1643851;87;21125;-69
2021/11/06 02:26:04;;;;;;;10.40;7.10;;;;;;;12.38;65.51;101125.75;1656817;85;21417;-68
2021/11/06 02:28:31;;;;;;;8.20;7.10;;;;;;;12.38;65.41;101129.77;1671515;85;21342;-67
2021/11/06 02:30:57;;;;;;;10.57;6.70;;;;;;;12.37;65.41;101132.18;1670486;84;21815;-68
2021/11/06 02:33:24;;;;;;;9.53;6.87;;;;;;;12.37;65.58;101140.22;1671346;85;21311;-68
2021/11/06 02:35:51;;;;;;;7.93;6.10;;;;;;;12.36;65.60;101149.30;1670472;84;22191;-68
2021/11/06 02:38:18;;;;;;;9.13;6.40;;;;;;;12.34;65.50;101159.98;1671506;85;21330;-68
2021/11/06 02:40:45;;;;;;;9.60;6.10;;;;;;;12.34;65.66;101160.81;1670464;85;21279;-68
2021/11/06 02:43:12;;;;;;;8.27;6.07;;;;;;;12.30;65.64;101173.61;1671358;85;21217;-68
2021/11/06 02:45:39;;;;;;;9.03;6.27;;;;;;;12.25;65.43;101177.06;1671212;85;21305;-68
2021/11/06 02:48:07;;;;;;;8.75;6.58;;;;;;;12.19;65.42;101194.94;1671236;85;21430;-68
2021/11/06 02:50:34;;;;;;;8.97;6.40;;;;;;;12.09;65.51;101204.20;1671295;85;21482;-68
2021/11/06 02:53:00;;;;;;;9.43;5.90;;;;;;;12.01;65.78;101203.83;1671442;85;21533;-68
2021/11/06 02:55:28;;;;;;;7.62;5.55;;;;;;;11.92;66.10;101201.61;1642561;87;21089;-68
2021/11/06 02:57:54;;;;;;;7.97;5.62;;;;;;;11.82;66.40;101208.14;1671318;84;21430;-68
2021/11/06 03:00:22;;;;;;;8.65;6.08;;;;;;;11.78;66.58;101215.56;1642633;87;21047;-68
2021/11/06 03:02:48;;;;;;;6.50;5.30;;;;;;;11.76;66.70;101237.77;1671453;85;21033;-69
2021/11/06 03:05:16;;;;;;;8.60;6.17;;;;;;;11.71;66.70;101238.50;1642748;86;21153;-69
2021/11/06 03:07:44;;;;;;;9.33;6.05;;;;;;;11.67;66.87;101225.34;1671356;85;21029;-69
2021/11/06 03:10:11;;;;;;;8.60;6.45;;;;;;;11.64;67.09;101213.26;1642839;86;21083;-68
2021/11/06 03:12:38;;;;;;;9.65;6.62;;;;;;;11.63;67.37;101209.50;1671327;84;21533;-69
2021/11/06 03:15:07;;;;;;;9.03;5.85;;;;;;;11.62;67.58;101206.55;1671444;85;21005;-69
2021/11/06 03:17:35;;;;;;;8.80;6.50;;;;;;;11.60;67.82;101197.95;1642692;86;21046;-68
2021/11/06 03:20:03;;;;;;;9.58;6.80;;;;;;;11.59;68.00;101205.71;1671770;85;21065;-68
2021/11/06 03:22:31;;;;;;;10.50;6.78;;;;;;;11.57;68.11;101204.61;1642530;86;21046;-68
2021/11/06 03:24:58;;;;;;;10.23;7.28;;;;;;;11.57;68.29;101215.84;1671275;85;21532;-67
2021/11/06 03:27:25;;;;;;;9.40;7.33;;;;;;;11.54;68.36;101202.95;1642730;87;21134;-67
2021/11/06 03:29:52;;;;;;;8.93;6.40;;;;;;;11.53;68.54;101200.81;1671314;85;21201;-68
2021/11/06 03:32:19;;;;;;;8.18;6.60;;;;;;;11.50;68.46;101205.32;1642508;86;21624;-68
2021/11/06 03:34:45;;;;;;;8.28;5.83;;;;;;;11.48;68.55;101210.93;1671483;85;21098;-68
2021/11/06 03:37:12;;;;;;;9.60;6.70;;;;;;;11.44;68.68;101213.80;1671492;85;21517;-68
2021/11/06 03:39:38;;;;;;;9.08;6.95;;;;;;;11.38;68.74;101214.77;1642747;86;21103;-68
2021/11/06 03:42:06;;;;;;;7.10;5.37;;;;;;;11.33;68.85;101205.89;1671354;85;21084;-69
2021/11/06 03:44:34;;;;;;;9.30;6.03;;;;;;;11.32;68.87;101190.38;1671245;85;21505;-69
2021/11/06 03:47:01;;;;;;;7.80;6.15;;;;;;;11.30;68.85;101199.16;1642625;86;21486;-68
2021/11/06 03:49:28;;;;;;;8.43;6.17;;;;;;;11.28;68.81;101191.37;1671692;85;20987;-68
2021/11/06 03:51:54;;;;;;;8.58;6.58;;;;;;;11.26;68.84;101194.03;1642826;86;21090;-69
2021/11/06 03:54:21;;;;;;;9.38;6.50;;;;;;;11.24;68.93;101190.78;1671209;85;21138;-69
2021/11/06 03:56:48;;;;;;;7.53;5.95;;;;;;;11.23;69.16;101185.16;1641733;86;21435;-69
2021/11/06 03:59:14;;;;;;;7.10;5.75;;;;;;;11.25;69.42;101184.36;1671347;85;21070;-69
2021/11/06 04:01:41;;;;;;;8.93;6.37;;;;;;;11.24;69.61;101190.78;1670086;85;21071;-69
2021/11/06 04:04:08;;;;;;;8.08;6.12;;;;;;;11.21;69.77;101194.75;1671651;85;21117;-69
2021/11/06 04:06:36;;;;;;;6.67;5.47;;;;;;;11.14;69.95;101208.02;1671369;85;21698;-69
2021/11/06 04:09:05;;;;;;;7.87;5.83;;;;;;;11.07;70.19;101211.38;1671390;85;21054;-70
2021/11/06 04:11:33;;;;;;;8.80;6.50;;;;;;;11.00;70.26;101213.69;1671615;85;21026;-69
2021/11/06 04:14:00;;;;;;;8.18;6.72;;;;;;;10.96;70.37;101205.08;1671419;85;21011;-69
2021/11/06 04:16:26;;;;;;;8.18;5.97;;;;;;;10.91;70.49;101207.13;1671379;85;21010;-69
2021/11/06 04:18:53;;;;;;;8.15;5.85;;;;;;;10.88;70.56;101200.92;1671280;84;21099;-69
2021/11/06 04:21:20;;;;;;;7.50;6.17;;;;;;;10.86;70.67;101199.55;1671394;85;21553;-71
2021/11/06 04:23:47;;;;;;;8.48;5.85;;;;;;;10.85;70.71;101193.39;1671539;85;20979;-69
2021/11/06 04:26:13;;;;;;;9.13;6.37;;;;;;;10.84;70.79;101205.14;1671506;85;21561;-70
2021/11/06 04:28:40;;;;;;;8.35;6.58;;;;;;;10.85;70.90;101207.28;1671209;84;21179;-71
2021/11/06 04:31:07;;;;;;;9.63;6.42;;;;;;;10.85;70.96;101193.39;1671303;85;21142;-71
2021/11/06 04:33:33;;;;;;;9.60;6.80;;;;;;;10.84;71.04;101200.33;1671123;84;21050;-71
2021/11/06 04:36:01;;;;;;;9.63;6.53;;;;;;;10.86;71.10;101191.52;1671390;85;21573;-69
2021/11/06 04:38:29;;;;;;;7.12;6.25;;;;;;;10.86;71.23;101195.03;1671223;85;21030;-69
2021/11/06 04:40:56;;;;;;;8.10;6.65;;;;;;;10.89;71.30;101203.06;1671206;85;21022;-69
2021/11/06 04:43:22;;;;;;;7.83;6.55;;;;;;;10.89;71.32;101203.91;1671312;85;21119;-69
2021/11/06 04:45:49;;;;;;;9.45;6.75;;;;;;;10.89;71.36;101210.59;1671270;85;21447;-69
2021/11/06 04:48:15;;;;;;;9.35;6.55;;;;;;;10.86;71.38;101213.74;1671295;85;21065;-69
2021/11/06 04:50:43;;;;;;;9.90;6.87;;;;;;;10.83;71.43;101212.89;1671232;85;21212;-69
2021/11/06 04:53:10;;;;;;;8.73;6.20;;;;;;;10.80;71.49;101209.36;1671216;84;21112;-69
2021/11/06 04:55:36;;;;;;;9.03;6.83;;;;;;;10.79;71.55;101200.54;1671390;85;21806;-69
2021/11/06 04:58:03;;;;;;;7.87;6.50;;;;;;;10.80;71.57;101200.00;1671264;85;21441;-69
2021/11/06 05:00:30;;;;;;;9.38;7.08;;;;;;;10.76;71.58;101197.02;1642679;87;21546;-70
2021/11/06 05:02:56;;;;;;;8.25;6.83;;;;;;;10.75;71.62;101215.41;1671324;85;20966;-70
2021/11/06 05:05:23;;;;;;;8.70;7.20;;;;;;;10.74;71.67;101242.38;1641467;86;20980;-70
2021/11/06 05:07:51;;;;;;;10.75;7.33;;;;;;;10.70;71.77;101242.59;1671413;84;21162;-70
2021/11/06 05:10:17;;;;;;;8.48;6.78;;;;;;;10.65;71.84;101220.58;1670051;85;20948;-70
2021/11/06 05:12:45;;;;;;;9.00;7.22;;;;;;;10.67;71.90;101215.02;1671393;85;21074;-70
2021/11/06 05:15:11;;;;;;;9.08;7.20;;;;;;;10.66;71.85;101224.89;1668994;85;21121;-70
2021/11/06 05:17:40;;;;;;;9.40;7.35;;;;;;;10.64;71.85;101230.19;1665876;84;21069;-69
2021/11/06 05:20:08;;;;;;;9.33;7.22;;;;;;;10.62;71.89;101229.61;1670168;85;21152;-69
2021/11/06 05:22:35;;;;;;;13.68;7.28;;;;;;;10.61;71.91;101227.47;1664584;84;21167;-70
2021/11/06 05:25:04;;;;;;;9.30;7.58;;;;;;;10.61;71.98;101230.14;1638335;86;21083;-70
2021/11/06 05:27:32;;;;;;;11.22;7.92;;;;;;;10.59;71.91;101230.89;1647199;84;21049;-70
2021/11/06 05:30:07;;;;;;;9.10;7.53;;;;;;;10.53;72.01;101243.37;1669893;86;21025;-70
2021/11/06 05:32:35;;;;;;;8.98;7.55;;;;;;;10.52;72.06;101248.41;1669558;84;21134;-71
2021/11/06 05:35:02;;;;;;;10.03;7.65;;;;;;;10.53;72.11;101253.25;1641101;87;21087;-73
2021/11/06 05:37:30;;;;;;;9.73;7.15;;;;;;;10.54;72.12;101258.87;1669824;84;21026;-72
2021/11/06 05:39:57;;;;;;;10.15;8.40;;;;;;;10.55;72.07;101251.94;1671559;85;21076;-71
2021/11/06 05:42:23;;;;;;;11.48;8.23;;;;;;;10.56;72.10;101252.24;1671540;84;21145;-72
2021/11/06 05:44:50;;;;;;;11.45;8.48;;;;;;;10.60;72.08;101255.77;1671455;85;21183;-70
2021/11/06 05:47:16;;;;;;;9.55;7.67;;;;;;;10.64;71.96;101260.91;1670213;84;21116;-71
2021/11/06 05:49:43;;;;;;;10.63;8.23;;;;;;;10.63;71.88;101261.94;1642620;87;21059;-71
2021/11/06 05:52:09;;;;;;;11.15;8.18;;;;;;;10.61;71.74;101256.05;1671570;85;21109;-69
2021/11/06 05:54:38;;;;;;;9.03;7.60;;;;;;;10.62;71.70;101259.00;1642634;87;21152;-71
2021/11/06 05:57:05;;;;;;;9.30;7.50;;;;;;;10.62;71.65;101259.80;1671112;84;21544;-69
2021/11/06 05:59:32;;;;;;;8.78;7.10;;;;;;;10.62;71.59;101254.45;1642678;86;21019;-70
2021/11/06 06:01:59;;;;;;;9.78;7.75;;;;;;;10.63;71.54;101268.62;1671202;84;20978;-70
2021/11/06 06:04:26;;;;;;;9.60;7.10;;;;;;;10.63;71.46;101270.79;1642845;86;21035;-70
2021/11/06 06:06:52;;;;;;;8.85;7.17;;;;;;;10.64;71.34;101272.94;1671444;85;21162;-70
2021/11/06 06:09:19;;;;;;;9.10;7.08;;;;;;;10.64;71.29;101267.59;1669952;85;21540;-69
2021/11/06 06:11:46;;;;;;;9.68;6.83;;;;;;;10.63;71.31;101273.97;1641503;86;21021;-69
2021/11/06 06:14:14;;;;;;;10.00;7.55;;;;;;;10.63;71.20;101279.30;1642515;86;20988;-70
2021/11/06 06:16:41;;;;;;;8.95;7.03;;;;;;;10.59;71.18;101286.98;1641162;86;21519;-72
2021/11/06 06:19:09;;;;;;;9.50;7.28;;;;;;;10.60;71.07;101290.50;1642700;86;21539;-70
2021/11/06 06:21:36;;;;;;;9.08;7.25;;;;;;;10.58;71.04;101297.92;1642731;86;21144;-70
2021/11/06 06:24:03;;;;;;;8.55;7.12;;;;;;;10.54;70.96;101288.25;1641559;87;21030;-70
2021/11/06 06:26:31;;;;;;;9.53;7.33;;;;;;;10.50;70.83;101294.59;1642693;86;21011;-70
2021/11/06 06:28:57;;;;;;;10.20;7.20;;;;;;;10.43;70.87;101297.94;1651163;84;21090;-70
2021/11/06 06:31:24;;;;;;;8.45;6.65;;;;;;;10.41;70.86;101300.55;1641718;86;21461;-70
2021/11/06 06:33:51;;;;;;;8.88;6.75;;;;;;;10.38;70.89;101298.35;1624621;86;21125;-70
2021/11/06 06:36:17;;;;;;;10.85;7.60;;;;;;;10.28;71.03;101305.63;1641348;87;20968;-70
2021/11/06 06:38:44;;;;;;;9.93;7.37;;;;;;;10.28;71.06;101298.95;1668782;84;20988;-70
2021/11/06 06:41:10;;;;;;;9.60;7.10;;;;;;;10.26;71.09;101306.38;1642589;86;21135;-70
2021/11/06 06:43:38;;;;;;;9.05;7.20;;;;;;;10.27;71.16;101308.03;1671048;84;21000;-70
2021/11/06 06:46:04;;;;;;;8.65;6.60;;;;;;;10.30;71.25;101304.89;1642618;86;21574;-70
2021/11/06 06:48:32;;;;;;;9.25;7.22;;;;;;;10.34;71.43;101308.70;1670843;84;21148;-70
2021/11/06 06:50:58;;;;;;;9.48;6.72;;;;;;;10.42;71.47;101313.65;1671122;85;21466;-71
2021/11/06 06:53:25;;;;;;;9.30;7.55;;;;;;;10.49;71.20;101325.00;1670897;85;21598;-70
2021/11/06 06:55:52;;;;;;;9.10;7.47;;;;;;;10.57;71.05;101319.83;1642808;86;21552;-69
2021/11/06 06:58:19;;;;;;;8.95;7.47;;;;;;;10.63;70.91;101320.22;1670623;84;21128;-70
2021/11/06 07:00:47;;;;;;;9.43;7.80;;;;;;;10.74;70.87;101330.56;1671370;85;21113;-70
2021/11/06 07:03:13;;;;;;;9.25;6.95;;;;;;;10.79;70.21;101337.32;1670360;84;21091;-71
2021/11/06 07:05:41;;;;;;;10.38;7.12;;;;;;;10.85;69.75;101335.56;1641988;86;21093;-71
2021/11/06 07:08:07;;;;;;;9.80;6.80;;;;;;;10.91;69.49;101344.77;1671256;84;20981;-70
2021/11/06 07:10:36;;;;;;;8.58;6.72;;;;;;;10.99;69.47;101353.75;1671115;84;22001;-70
2021/11/06 07:13:02;;;;;;;9.88;7.65;;;;;;;11.06;69.20;101343.44;1642632;86;21073;-70
2021/11/06 07:15:30;;;;;;;9.05;7.00;;;;;;;11.13;68.44;101328.86;1642665;86;21062;-68
2021/11/06 07:17:57;;;;;;;9.48;7.10;;;;;;;11.21;68.22;101331.12;1642557;86;21471;-70
2021/11/06 07:20:24;;;;;;;9.05;7.28;;;;;;;11.29;67.54;101328.59;1671146;84;20988;-68
2021/11/06 07:22:51;;;;;;;9.50;6.97;;;;;;;11.37;67.21;101328.17;1641418;86;21705;-68
2021/11/06 07:25:18;;;;;;;9.60;7.20;;;;;;;11.44;66.96;101320.80;1669996;84;21565;-69
2021/11/06 07:27:46;;;;;;;8.80;6.65;;;;;;;11.51;66.37;101304.05;1670198;84;21473;-69
2021/11/06 07:30:12;;;;;;;10.78;7.55;;;;;;;11.58;66.24;101307.08;1669443;85;21145;-69
2021/11/06 07:32:39;;;;;;;9.48;7.53;;;;;;;11.65;65.98;101306.41;1642862;87;21142;-69
2021/11/06 07:35:07;;;;;;;10.40;7.40;;;;;;;11.73;65.62;101309.98;1671523;85;21166;-69
2021/11/06 07:37:34;;;;;;;9.03;7.30;;;;;;;11.79;64.94;101317.58;1642725;86;21479;-70
2021/11/06 07:40:01;;;;;;;9.75;7.47;;;;;;;11.84;64.37;101316.29;1671543;85;21097;-69
2021/11/06 07:42:28;;;;;;;9.48;7.90;;;;;;;11.84;64.02;101321.14;1671316;85;21100;-69
2021/11/06 07:44:55;;;;;;;9.98;7.55;;;;;;;11.86;63.62;101325.73;1642595;87;21533;-70
2021/11/06 07:47:21;;;;;;;9.78;7.72;;;;;;;11.92;63.57;101324.75;1671563;85;21046;-69
2021/11/06 07:49:48;;;;;;;11.40;8.10;;;;;;;11.95;62.90;101329.61;1642458;87;21173;-69
2021/11/06 07:52:14;;;;;;;9.50;7.93;;;;;;;12.02;63.09;101342.82;1671209;85;21019;-70
2021/11/06 07:54:41;;;;;;;10.20;8.07;;;;;;;12.06;62.28;101337.78;1671276;85;21443;-69
2021/11/06 07:57:09;;;;;;;10.83;7.87;;;;;;;12.12;61.89;101342.95;1671515;85;21807;-69
2021/11/06 07:59:35;;;;;;;9.73;7.87;;;;;;;12.19;61.61;101342.77;1671224;85;21247;-70
2021/11/06 08:02:03;;;;;;;9.67;7.40;;;;;;;12.28;61.73;101339.95;1671234;85;21074;-70
2021/11/06 08:04:30;;;;;;;9.23;7.50;;;;;;;12.38;61.23;101346.77;1671244;85;21321;-70
2021/11/06 08:06:57;;;;;;;8.63;6.97;;;;;;;12.45;60.39;101346.58;1671415;84;21054;-70
2021/11/06 08:09:24;;;;;;;8.90;7.47;;;;;;;12.49;59.74;101344.20;1671146;84;21295;-70
2021/11/06 08:11:51;;;;;;;8.43;7.27;;;;;;;12.53;59.42;101336.75;1671777;85;21254;-70
2021/11/06 08:14:18;;;;;;;9.43;7.35;;;;;;;12.60;59.25;101339.23;1671272;85;21093;-69
2021/11/06 08:16:45;;;;;;;8.53;7.00;;;;;;;12.65;58.46;101344.66;1671705;85;21030;-69
2021/11/06 08:19:11;;;;;;;10.40;6.83;;;;;;;12.62;57.35;101358.56;1671288;85;21311;-69
2021/11/06 08:21:38;;;;;;;8.73;6.80;;;;;;;12.64;57.80;101353.77;1671386;85;21340;-69
2021/11/06 08:24:06;;;;;;;8.73;7.37;;;;;;;12.64;57.46;101356.45;1666026;85;21312;-70
2021/11/06 08:26:33;;;;;;;10.77;7.63;;;;;;;12.70;57.81;101364.00;1668970;85;21715;-69
2021/11/06 08:29:00;;;;;;;8.83;7.27;;;;;;;12.77;57.40;101356.06;1641251;86;21871;-69
2021/11/06 08:31:27;;;;;;;8.77;6.87;;;;;;;12.84;57.11;101362.03;1669955;86;21276;-69
2021/11/06 08:33:54;;;;;;;9.07;7.20;;;;;;;12.86;56.43;101369.27;1640994;86;21297;-70
2021/11/06 08:36:20;;;;;;;10.23;7.27;;;;;;;12.89;56.14;101363.94;1668653;85;21317;-69
2021/11/06 08:38:47;;;;;;;8.90;6.83;;;;;;;12.89;55.65;101372.80;1671197;84;21581;-70
2021/11/06 08:41:15;;;;;;;11.17;7.37;;;;;;;12.89;55.71;101367.96;1642662;87;21317;-69
2021/11/06 08:43:41;;;;;;;11.60;7.60;;;;;;;12.94;56.10;101360.52;1670798;85;21274;-69
2021/11/06 08:46:09;;;;;;;8.37;6.87;;;;;;;12.97;54.95;101360.02;1642743;87;21307;-68
2021/11/06 08:48:37;;;;;;;8.60;6.87;;;;;;;13.00;54.79;101353.61;1671361;85;21899;-70
2021/11/06 08:51:04;;;;;;;8.40;6.43;;;;;;;12.98;54.73;101358.95;1642921;86;21093;-69
2021/11/06 08:53:31;;;;;;;7.80;5.87;;;;;;;12.98;54.79;101368.33;1671265;85;21262;-69
2021/11/06 08:55:58;;;;;;;7.63;5.80;;;;;;;13.07;54.52;101366.82;1643074;86;21264;-69
2021/11/06 08:58:24;;;;;;;7.53;5.40;;;;;;;13.14;54.37;101372.25;1671370;84;21359;-71
2021/11/06 09:00:51;;;;;;;8.30;5.50;;;;;;;13.20;53.51;101354.34;1671495;85;21964;-69
2021/11/06 09:03:23;;;;;;;8.00;5.57;;;;;;;13.23;53.06;101349.80;1642790;86;21336;-69
2021/11/06 09:05:51;;;;;;;7.60;5.63;;;;;;;13.26;52.72;101345.30;1671455;85;21213;-68
2021/11/06 09:08:28;;;;;;;7.73;6.13;;;;;;;13.34;53.17;101348.84;1642884;86;21323;-69
2021/11/06 09:10:59;;;;;;;7.53;5.23;;;;;;;13.37;53.01;101347.00;1641162;86;21772;-70
2021/11/06 09:13:26;;;;;;;7.28;5.20;;;;;;;13.44;52.83;101344.63;1648613;85;21432;-69
2021/11/06 09:15:53;;;;;;;7.37;5.60;;;;;;;13.53;52.50;101347.92;1642772;86;21106;-69
2021/11/06 09:18:21;;;;;;;8.07;6.10;;;;;;;13.62;52.47;101345.55;1670987;84;21330;-68
2021/11/06 09:20:48;;;;;;;7.37;5.77;;;;;;;13.71;52.05;101344.02;1670086;85;21816;-70
2021/11/06 09:23:16;;;;;;;6.50;5.43;;;;;;;13.80;51.67;101344.34;1671420;84;21378;-70
2021/11/06 09:25:43;;;;;;;7.77;5.70;;;;;;;13.86;51.61;101343.86;1642866;86;21176;-69
2021/11/06 09:28:10;;;;;;;8.30;5.87;;;;;;;13.83;51.14;101334.44;1671316;84;21282;-70
2021/11/06 09:30:38;;;;;;;7.33;4.93;;;;;;;13.83;51.09;101337.92;1671182;84;21378;-69
2021/11/06 09:33:05;;;;;;;6.33;4.30;;;;;;;13.83;50.60;101336.58;1642882;86;21326;-69
2021/11/06 09:35:32;;;;;;;6.57;4.33;;;;;;;13.88;50.17;101363.19;1671468;84;21340;-69
2021/11/06 09:37:59;;;;;;;5.73;3.93;;;;;;;13.81;48.75;101344.08;1642962;87;21777;-69
2021/11/06 09:40:26;;;;;;;5.80;4.20;;;;;;;13.65;47.73;101336.19;1641519;86;21145;-69
2021/11/06 09:42:53;;;;;;;6.70;4.53;;;;;;;13.57;48.54;101336.14;1642806;87;21850;-69
2021/11/06 09:45:20;;;;;;;5.80;4.30;;;;;;;13.49;48.53;101328.55;1671523;85;21215;-69
2021/11/06 09:47:48;;;;;;;7.30;4.50;;;;;;;13.44;48.99;101325.31;1671339;85;21279;-70
2021/11/06 09:50:18;;;;;;;7.33;4.27;;;;;;;13.45;49.64;101334.97;1671286;84;21312;-69
2021/11/06 09:52:49;;;;;;;6.77;4.10;;;;;;;13.51;49.53;101323.20;1671304;84;21263;-70
2021/11/06 09:55:18;;;;;;;5.45;3.80;;;;;;;13.62;49.05;101326.77;1671597;84;21184;-68
2021/11/06 09:57:45;;;;;;;5.90;4.17;;;;;;;13.59;48.54;101318.72;1671529;85;21544;-71
2021/11/06 10:00:13;;;;;;;6.07;4.17;;;;;;;13.63;48.79;101337.80;1671388;84;21696;-70
2021/11/06 10:02:41;;;;;;;5.23;4.00;;;;;;;13.67;48.24;101337.55;1671374;84;21353;-70
2021/11/06 10:05:10;;;;;;;6.37;4.50;;;;;;;13.72;48.53;101330.88;1671244;85;21752;-70
2021/11/06 10:07:38;;;;;;;5.87;4.47;;;;;;;13.77;48.16;101332.24;1642243;86;21733;-70
2021/11/06 10:10:13;;;;;;;7.63;4.70;;;;;;;13.85;48.20;101329.59;1669995;86;21206;-70
2021/11/06 10:12:50;;;;;;;6.20;4.53;;;;;;;13.89;48.06;101325.34;1641747;86;21450;-69
2021/11/06 10:15:18;;;;;;;6.57;4.80;;;;;;;13.91;48.29;101322.39;1669406;85;21706;-69
2021/11/06 10:17:45;;;;;;;6.83;5.07;;;;;;;13.98;48.67;101327.79;1638342;86;21359;-69
2021/11/06 10:20:28;;;;;;;5.97;4.70;;;;;;;13.97;48.37;101320.00;1642843;86;21063;-68
2021/11/06 10:23:01;;;;;;;5.70;4.20;;;;;;;13.87;48.71;101332.84;1670559;84;21847;-69
2021/11/06 10:25:28;;;;;;;7.70;4.20;;;;;;;13.72;48.31;101337.59;1641956;86;21269;-69
2021/11/06 10:27:58;;;;;;;6.00;4.40;;;;;;;13.49;47.97;101333.92;1670848;84;21824;-68
2021/11/06 10:30:32;;;;;;;7.37;4.70;;;;;;;13.34;48.41;101323.35;1642882;86;21211;-69
2021/11/06 10:33:08;;;;;;;6.50;4.20;;;;;;;13.21;48.98;101333.14;1671447;84;21317;-68
2021/11/06 10:35:48;;;;;;;4.90;3.67;;;;;;;13.20;49.24;101322.14;1671110;84;21251;-68
2021/11/06 10:38:21;;;;;;;5.50;3.93;;;;;;;13.32;49.44;101316.62;1642812;86;21226;-68
2021/11/06 10:40:55;;;;;;;5.70;4.00;;;;;;;13.48;48.69;101308.16;1642742;86;21293;-68
2021/11/06 10:43:24;;;;;;;6.47;4.60;;;;;;;13.64;48.35;101295.66;1668780;84;21328;-68
2021/11/06 10:45:59;;;;;;;5.80;4.03;;;;;;;13.70;48.20;101292.73;1671410;84;21605;-68
2021/11/06 10:48:30;;;;;;;5.20;3.43;;;;;;;13.78;48.14;101289.55;1671358;85;21707;-68
2021/11/06 10:51:05;;;;;;;5.50;4.00;;;;;;;13.84;47.14;101301.13;1671280;84;21179;-68
2021/11/06 10:53:53;;;;;;;6.37;4.23;;;;;;;13.88;47.00;101300.08;1642699;87;21213;-69
2021/11/06 10:56:29;;;;;;;5.37;3.57;;;;;;;13.90;47.20;101304.13;1671396;85;21881;-69
2021/11/06 10:59:04;;;;;;;6.27;3.90;;;;;;;13.90;46.65;101305.47;1642617;87;21596;-69
2021/11/06 11:01:35;;;;;;;6.60;4.60;;;;;;;13.92;46.39;101307.37;1671344;85;21588;-68
2021/11/06 11:04:08;;;;;;;5.50;4.30;;;;;;;13.90;46.37;101297.95;1642865;86;21213;-70
2021/11/06 11:06:39;;;;;;;5.67;4.30;;;;;;;13.87;46.36;101304.64;1671228;85;21237;-70
2021/11/06 11:09:15;;;;;;;5.70;4.27;;;;;;;13.88;46.35;101318.34;1642479;86;21458;-69
2021/11/06 11:11:42;;;;;;;7.43;4.60;;;;;;;13.90;46.60;101306.01;1671421;85;21758;-69
2021/11/06 11:14:12;;;;;;;5.83;3.87;;;;;;;13.91;45.86;101327.76;1642678;86;21366;-68
2021/11/06 11:16:56;;;;;;;7.27;4.97;;;;;;;13.91;45.82;101304.93;1671411;85;21304;-68
2021/11/06 11:19:44;;;;;;;6.17;4.30;;;;;;;13.90;45.91;101314.06;1642491;86;21745;-68
2021/11/06 11:22:31;;;;;;;5.17;3.73;;;;;;;13.90;46.13;101308.69;1671359;85;21209;-69
2021/11/06 11:24:58;;;;;;;5.27;3.70;;;;;;;13.91;45.67;101303.05;1642667;86;21786;-68
2021/11/06 11:27:25;;;;;;;5.40;3.50;;;;;;;13.90;45.20;101301.44;1671380;85;21306;-68